createdAt,value
2023-01-31T00:01:49.929Z,56.83
2023-01-31T00:04:19.024Z,56.07
2023-01-31T00:06:51.684Z,57.57
2023-01-31T00:09:23.571Z,55.47
2023-01-31T00:11:54.418Z,55.60
2023-01-31T00:14:29.484Z,52.87
2023-01-31T00:16:58.536Z,54.87
2023-01-31T00:19:27.636Z,55.00
2023-01-31T00:21:56.588Z,55.47
2023-01-31T00:24:25.556Z,52.63
2023-01-31T00:26:58.153Z,53.83
2023-01-31T00:29:28.346Z,53.43
2023-01-31T00:31:57.533Z,51.87
2023-01-31T00:34:28.741Z,53.63
2023-01-31T00:36:57.801Z,52.63
2023-01-31T00:39:27.080Z,53.23
2023-01-31T00:41:59.263Z,53.73
2023-01-31T00:44:34.684Z,52.43
2023-01-31T00:47:03.729Z,52.63
2023-01-31T00:49:33.242Z,52.27
2023-01-31T00:52:02.334Z,52.27
2023-01-31T00:54:31.446Z,52.83
2023-01-31T00:57:01.954Z,54.30
2023-01-31T00:59:31.160Z,54.53
2023-01-31T01:02:00.246Z,52.37
2023-01-31T01:04:29.449Z,54.17
2023-01-31T01:06:58.555Z,52.60
2023-01-31T01:09:27.547Z,50.33
2023-01-31T01:11:57.702Z,49.07
2023-01-31T01:14:28.214Z,48.83
2023-01-31T01:16:58.645Z,49.27
2023-01-31T01:19:30.204Z,50.27
2023-01-31T01:21:59.768Z,57.17
2023-01-31T01:24:29.312Z,58.10
2023-01-31T01:26:58.269Z,63.93
2023-01-31T01:29:29.997Z,60.50
2023-01-31T01:31:59.097Z,59.33
2023-01-31T01:34:28.510Z,58.17
2023-01-31T01:36:57.558Z,58.10
2023-01-31T01:39:30.490Z,57.33
2023-01-31T01:41:59.885Z,60.00
2023-01-31T01:44:52.353Z,56.77
2023-01-31T01:47:45.205Z,52.23
2023-01-31T01:50:18.020Z,53.97
2023-01-31T01:52:52.072Z,54.47
2023-01-31T01:55:25.520Z,52.87
2023-01-31T01:58:00.924Z,51.47
2023-01-31T02:00:32.688Z,52.17
2023-01-31T02:03:05.194Z,50.30
2023-01-31T02:05:38.504Z,52.40
2023-01-31T02:08:07.901Z,50.10
2023-01-31T02:10:47.525Z,51.47
2023-01-31T02:13:19.542Z,50.13
2023-01-31T02:15:50.424Z,49.53
2023-01-31T02:18:22.143Z,49.67
2023-01-31T02:21:32.830Z,48.93
2023-01-31T02:24:21.485Z,47.87
2023-01-31T02:27:31.101Z,49.77
2023-01-31T02:30:43.066Z,50.87
2023-01-31T02:33:24.180Z,51.30
2023-01-31T02:36:05.381Z,51.27
2023-01-31T02:38:52.450Z,52.40
2023-01-31T02:41:29.830Z,49.57
2023-01-31T02:44:22.452Z,51.73
2023-01-31T02:47:02.527Z,50.70
2023-01-31T02:49:40.505Z,53.03
2023-01-31T02:52:21.775Z,53.30
2023-01-31T02:55:25.737Z,50.10
2023-01-31T02:57:59.750Z,54.60
2023-01-31T03:00:30.825Z,59.27
2023-01-31T03:03:00.043Z,52.33
2023-01-31T03:05:30.526Z,57.00
2023-01-31T03:08:02.201Z,52.93
2023-01-31T03:11:01.895Z,53.00
2023-01-31T03:13:43.549Z,53.03
2023-01-31T03:16:41.737Z,53.03
2023-01-31T03:19:16.471Z,52.70
2023-01-31T03:21:53.113Z,54.03
2023-01-31T03:24:26.719Z,52.60
2023-01-31T03:26:58.791Z,53.70
2023-01-31T03:29:31.165Z,53.00
2023-01-31T03:32:07.246Z,54.27
2023-01-31T03:34:37.253Z,56.10
2023-01-31T03:37:16.986Z,55.37
2023-01-31T03:40:01.672Z,53.63
2023-01-31T03:42:41.432Z,52.47
2023-01-31T03:45:20.542Z,56.60
2023-01-31T03:47:54.911Z,53.93
2023-01-31T03:50:28.446Z,55.97
2023-01-31T03:53:06.280Z,52.47
2023-01-31T03:55:42.532Z,51.00
2023-01-31T03:58:15.412Z,50.37
2023-01-31T04:00:46.402Z,50.17
2023-01-31T04:03:22.517Z,53.00
2023-01-31T04:05:51.687Z,49.93
2023-01-31T04:08:24.058Z,50.27
2023-01-31T04:11:02.083Z,49.60
2023-01-31T04:13:33.480Z,50.13
2023-01-31T04:16:03.153Z,50.17
2023-01-31T04:18:37.465Z,47.47
2023-01-31T04:21:09.061Z,49.23
2023-01-31T04:23:39.725Z,47.23
2023-01-31T04:26:08.831Z,45.53
2023-01-31T04:28:39.796Z,50.03
2023-01-31T04:31:09.598Z,46.77
2023-01-31T04:33:38.724Z,49.43
2023-01-31T04:36:09.054Z,49.17
2023-01-31T04:38:39.799Z,49.80
2023-01-31T04:41:13.558Z,50.33
2023-01-31T04:43:42.584Z,52.50
2023-01-31T04:46:11.598Z,50.27
2023-01-31T04:48:41.532Z,52.33
2023-01-31T04:51:11.637Z,54.57
2023-01-31T04:53:42.051Z,53.47
2023-01-31T04:56:11.095Z,51.03
2023-01-31T04:58:44.115Z,51.20
2023-01-31T05:01:15.717Z,54.20
2023-01-31T05:03:44.841Z,54.80
2023-01-31T05:06:13.887Z,55.03
2023-01-31T05:08:46.036Z,55.47
2023-01-31T05:11:15.151Z,53.23
2023-01-31T05:13:45.674Z,54.83
2023-01-31T05:16:16.812Z,57.77
2023-01-31T05:18:45.995Z,52.50
2023-01-31T05:21:15.003Z,52.10
2023-01-31T05:23:45.505Z,55.40
2023-01-31T05:26:14.651Z,51.23
2023-01-31T05:28:43.694Z,53.23
2023-01-31T05:31:13.529Z,49.97
2023-01-31T05:33:45.104Z,52.53
2023-01-31T05:36:15.070Z,51.10
2023-01-31T05:38:47.764Z,51.00
2023-01-31T05:41:17.977Z,50.10
2023-01-31T05:43:46.966Z,50.43
2023-01-31T05:46:16.043Z,50.67
2023-01-31T05:48:45.053Z,50.17
2023-01-31T05:51:15.813Z,47.90
2023-01-31T05:53:49.202Z,46.37
2023-01-31T05:56:18.212Z,51.43
2023-01-31T05:58:50.691Z,46.50
2023-01-31T06:01:22.118Z,45.37
2023-01-31T06:03:53.043Z,47.37
2023-01-31T06:06:22.654Z,45.90
2023-01-31T06:08:53.098Z,44.87
2023-01-31T06:11:22.132Z,46.17
2023-01-31T06:13:51.163Z,47.47
2023-01-31T06:16:20.267Z,43.27
2023-01-31T06:18:49.452Z,41.53
2023-01-31T06:21:18.430Z,41.40
2023-01-31T06:23:50.748Z,41.83
2023-01-31T06:26:21.264Z,44.20
2023-01-31T06:28:50.630Z,41.03
2023-01-31T06:31:20.113Z,41.83
2023-01-31T06:33:51.561Z,46.03
2023-01-31T06:36:20.565Z,43.20
2023-01-31T06:38:53.400Z,46.03
2023-01-31T06:41:24.290Z,48.07
2023-01-31T06:43:53.341Z,45.17
2023-01-31T06:46:25.595Z,49.00
2023-01-31T06:48:54.672Z,48.50
2023-01-31T06:51:23.769Z,45.70
2023-01-31T06:53:53.342Z,46.93
2023-01-31T06:56:27.102Z,50.17
2023-01-31T06:58:56.208Z,49.47
2023-01-31T07:01:27.400Z,50.00
2023-01-31T07:03:58.884Z,47.97
2023-01-31T07:06:30.511Z,51.90
2023-01-31T07:08:59.636Z,56.33
2023-01-31T07:11:32.589Z,73.27
2023-01-31T07:14:06.065Z,59.80
2023-01-31T07:16:35.297Z,49.23
2023-01-31T07:19:04.271Z,55.37
2023-01-31T07:21:33.551Z,51.87
2023-01-31T07:24:02.688Z,57.20
2023-01-31T07:26:33.524Z,57.87
2023-01-31T07:29:02.711Z,55.60
2023-01-31T07:31:32.406Z,59.43
2023-01-31T07:34:03.843Z,66.50
2023-01-31T07:36:33.382Z,59.00
2023-01-31T07:39:05.404Z,50.97
2023-01-31T07:41:38.123Z,52.60
2023-01-31T07:44:14.417Z,47.63
2023-01-31T07:46:45.964Z,48.03
2023-01-31T07:49:17.911Z,48.63
2023-01-31T07:51:46.968Z,45.10
2023-01-31T07:54:16.922Z,48.87
2023-01-31T07:56:48.611Z,45.70
2023-01-31T07:59:19.782Z,41.87
2023-01-31T08:02:06.157Z,46.87
2023-01-31T08:04:36.363Z,43.97
2023-01-31T08:07:09.877Z,49.83
2023-01-31T08:09:39.855Z,91.13
2023-01-31T08:12:10.386Z,78.30
2023-01-31T08:14:41.458Z,72.23
2023-01-31T08:17:10.574Z,54.33
2023-01-31T08:19:39.812Z,48.37
2023-01-31T08:22:09.042Z,44.97
2023-01-31T08:24:38.340Z,59.27
2023-01-31T08:27:08.582Z,52.17
2023-01-31T08:29:39.131Z,75.53
2023-01-31T08:32:08.676Z,56.23
2023-01-31T08:34:37.788Z,58.73
2023-01-31T08:37:12.372Z,54.63
2023-01-31T08:39:41.578Z,52.73
2023-01-31T08:42:18.072Z,55.10
2023-01-31T08:44:48.779Z,50.87
2023-01-31T08:47:18.948Z,54.57
2023-01-31T08:49:48.085Z,54.27
2023-01-31T08:52:17.282Z,55.20
2023-01-31T08:54:46.414Z,52.60
2023-01-31T08:57:17.852Z,48.80
2023-01-31T08:59:48.373Z,52.87
2023-01-31T09:02:19.722Z,49.40
2023-01-31T09:04:49.889Z,48.87
2023-01-31T09:07:21.861Z,50.27
2023-01-31T09:09:51.292Z,54.80
2023-01-31T09:12:20.386Z,49.13
2023-01-31T09:14:55.084Z,53.07
2023-01-31T09:17:25.341Z,69.63
2023-01-31T09:19:54.386Z,55.67
2023-01-31T09:22:23.798Z,60.43
2023-01-31T09:24:52.963Z,57.70
2023-01-31T09:27:22.015Z,55.13
2023-01-31T09:29:52.551Z,51.30
2023-01-31T09:32:23.169Z,55.20
2023-01-31T09:34:52.218Z,60.17
2023-01-31T09:37:21.380Z,59.47
2023-01-31T09:39:50.351Z,54.73
2023-01-31T09:42:31.997Z,55.47
2023-01-31T09:45:06.094Z,56.53
2023-01-31T09:47:44.379Z,50.33
2023-01-31T09:50:21.415Z,48.53
2023-01-31T09:52:51.205Z,47.73
2023-01-31T09:55:24.602Z,46.47
2023-01-31T09:58:02.914Z,48.20
2023-01-31T10:00:37.115Z,49.03
2023-01-31T10:03:33.775Z,61.33
2023-01-31T10:06:14.765Z,63.27
2023-01-31T10:08:51.977Z,67.63
2023-01-31T10:11:30.801Z,75.97
2023-01-31T10:14:04.843Z,42.63
2023-01-31T10:16:39.263Z,47.57
2023-01-31T10:19:13.933Z,45.37
2023-01-31T10:21:47.503Z,49.70
2023-01-31T10:24:22.514Z,45.07
2023-01-31T10:26:56.010Z,39.50
2023-01-31T10:29:32.707Z,38.17
2023-01-31T10:32:06.835Z,40.40
2023-01-31T10:34:41.557Z,38.17
2023-01-31T10:37:19.129Z,42.80
2023-01-31T10:39:52.424Z,40.10
2023-01-31T10:42:32.507Z,45.63
2023-01-31T10:45:08.022Z,40.73
2023-01-31T10:47:40.772Z,40.23
2023-01-31T10:50:16.716Z,41.80
2023-01-31T10:53:04.506Z,40.97
2023-01-31T10:55:45.170Z,43.97
2023-01-31T10:58:17.667Z,38.87
2023-01-31T11:00:48.191Z,37.13
2023-01-31T11:03:20.397Z,35.93
2023-01-31T11:05:55.130Z,39.07
2023-01-31T11:08:36.721Z,41.47
2023-01-31T11:11:10.685Z,39.57
2023-01-31T11:13:40.229Z,43.17
2023-01-31T11:16:11.246Z,45.87
2023-01-31T11:18:49.766Z,44.30
2023-01-31T11:21:24.107Z,46.13
2023-01-31T11:23:54.132Z,45.73
2023-01-31T11:26:31.866Z,37.80
2023-01-31T11:29:03.323Z,40.37
2023-01-31T11:31:36.191Z,44.03
2023-01-31T11:34:19.619Z,45.13
2023-01-31T11:36:48.689Z,44.50
2023-01-31T11:39:31.945Z,47.67
2023-01-31T11:42:08.472Z,41.53
2023-01-31T11:44:37.679Z,44.03
2023-01-31T11:47:13.963Z,44.47
2023-01-31T11:49:45.123Z,48.73
2023-01-31T11:52:16.503Z,42.23
2023-01-31T11:54:49.151Z,49.53
2023-01-31T11:57:24.615Z,44.90
2023-01-31T11:59:57.001Z,47.33
2023-01-31T12:02:32.405Z,44.77
2023-01-31T12:05:03.970Z,42.33
2023-01-31T12:07:45.834Z,44.03
2023-01-31T12:10:35.709Z,46.77
2023-01-31T12:13:19.268Z,45.87
2023-01-31T12:15:58.974Z,48.33
2023-01-31T12:18:52.174Z,42.33
2023-01-31T12:21:39.145Z,41.60
2023-01-31T12:24:17.951Z,43.17
2023-01-31T12:26:52.006Z,48.80
2023-01-31T12:29:52.175Z,41.70
2023-01-31T12:32:49.024Z,48.20
2023-01-31T12:35:45.516Z,42.17
2023-01-31T12:38:32.685Z,43.27
2023-01-31T12:41:13.715Z,43.43
2023-01-31T12:43:54.869Z,41.27
2023-01-31T12:46:35.257Z,46.87
2023-01-31T12:49:28.532Z,48.30
2023-01-31T12:52:05.879Z,41.77
2023-01-31T12:54:48.818Z,42.13
2023-01-31T12:57:34.187Z,44.63
2023-01-31T13:00:23.853Z,48.73
2023-01-31T13:03:07.311Z,50.20
2023-01-31T13:05:42.294Z,48.43
2023-01-31T13:08:22.464Z,46.00
2023-01-31T13:10:58.306Z,47.23
2023-01-31T13:13:31.203Z,51.77
2023-01-31T13:16:08.054Z,46.40
2023-01-31T13:18:38.303Z,49.17
2023-01-31T13:21:10.522Z,47.20
2023-01-31T13:23:43.718Z,48.93
2023-01-31T13:26:21.218Z,51.83
2023-01-31T13:28:57.138Z,47.97
2023-01-31T13:31:29.758Z,54.43
2023-01-31T13:34:06.477Z,48.73
2023-01-31T13:36:40.491Z,57.17
2023-01-31T13:39:15.776Z,59.73
2023-01-31T13:41:49.330Z,58.67
2023-01-31T13:44:20.733Z,55.57
2023-01-31T13:46:54.477Z,55.10
2023-01-31T13:49:28.245Z,57.97
2023-01-31T13:51:59.277Z,55.00
2023-01-31T13:54:33.792Z,59.40
2023-01-31T13:57:05.589Z,57.67
2023-01-31T13:59:38.029Z,61.73
2023-01-31T14:02:21.090Z,54.13
2023-01-31T14:04:50.309Z,60.57
2023-01-31T14:07:27.888Z,55.07
2023-01-31T14:10:32.914Z,60.43
2023-01-31T14:13:38.339Z,56.83
2023-01-31T14:16:39.924Z,55.23
2023-01-31T14:19:47.182Z,57.70
2023-01-31T14:22:17.837Z,56.50
2023-01-31T14:25:13.059Z,59.07
2023-01-31T14:27:45.358Z,62.30
2023-01-31T14:30:36.461Z,62.77
2023-01-31T14:33:18.707Z,58.93
2023-01-31T14:36:10.472Z,61.60
2023-01-31T14:38:54.012Z,66.53
2023-01-31T14:41:38.831Z,63.57
2023-01-31T14:44:21.307Z,62.50
2023-01-31T14:47:12.583Z,56.43
2023-01-31T14:50:09.453Z,61.60
2023-01-31T14:52:54.810Z,66.10
2023-01-31T14:55:51.307Z,58.60
2023-01-31T14:58:24.700Z,63.47
2023-01-31T15:00:56.130Z,61.23
2023-01-31T15:03:29.801Z,63.40
2023-01-31T15:06:11.866Z,60.30
2023-01-31T15:08:49.620Z,59.97
2023-01-31T15:11:42.823Z,70.63
2023-01-31T15:14:35.632Z,68.73
2023-01-31T15:17:17.431Z,67.17
2023-01-31T15:20:05.650Z,66.70
2023-01-31T15:22:41.702Z,59.67
2023-01-31T15:25:23.812Z,61.27
2023-01-31T15:27:56.024Z,65.60
2023-01-31T15:30:26.191Z,61.87
2023-01-31T15:32:59.535Z,63.07
2023-01-31T15:35:31.818Z,65.43
2023-01-31T15:38:07.400Z,68.90
2023-01-31T15:40:36.449Z,66.80
2023-01-31T15:43:19.158Z,67.90
2023-01-31T15:45:51.928Z,71.87
2023-01-31T15:48:23.841Z,67.70
2023-01-31T15:50:55.317Z,73.67
2023-01-31T15:53:31.383Z,72.07
2023-01-31T15:56:04.428Z,66.20
2023-01-31T15:58:35.308Z,73.40
2023-01-31T16:01:05.017Z,76.03
2023-01-31T16:03:42.243Z,78.40
2023-01-31T16:06:25.200Z,70.57
2023-01-31T16:09:01.180Z,71.10
2023-01-31T16:11:33.847Z,76.33
2023-01-31T16:14:06.919Z,81.13
2023-01-31T16:16:40.407Z,86.93
2023-01-31T16:19:09.803Z,90.47
2023-01-31T16:21:41.639Z,101.03
2023-01-31T16:24:17.122Z,86.57
2023-01-31T16:26:56.143Z,81.37
2023-01-31T16:29:34.553Z,77.87
2023-01-31T16:32:03.706Z,83.93
2023-01-31T16:34:36.515Z,84.20
2023-01-31T16:37:08.267Z,90.60
2023-01-31T16:39:45.257Z,88.57
2023-01-31T16:42:26.208Z,98.87
2023-01-31T16:44:55.360Z,94.23
2023-01-31T16:47:51.484Z,85.20
2023-01-31T16:50:43.057Z,95.20
2023-01-31T16:53:25.543Z,100.67
2023-01-31T16:56:28.501Z,98.03
2023-01-31T16:59:00.507Z,86.80
2023-01-31T17:01:32.653Z,81.73
2023-01-31T17:04:22.707Z,98.90
2023-01-31T17:07:02.514Z,90.77
2023-01-31T17:09:31.673Z,90.03
2023-01-31T17:12:02.118Z,89.67
2023-01-31T17:14:33.180Z,85.37
2023-01-31T17:17:12.606Z,76.30
2023-01-31T17:19:45.120Z,79.33
2023-01-31T17:22:16.599Z,84.47
2023-01-31T17:24:52.642Z,92.40
2023-01-31T17:27:24.156Z,94.97
2023-01-31T17:29:53.307Z,90.33
2023-01-31T17:32:23.428Z,86.50
2023-01-31T17:34:52.762Z,86.27
2023-01-31T17:37:31.666Z,88.70
2023-01-31T17:40:02.121Z,104.67
2023-01-31T17:42:32.905Z,103.70
2023-01-31T17:45:04.081Z,104.47
2023-01-31T17:47:33.161Z,100.37
2023-01-31T17:50:04.250Z,97.73
2023-01-31T17:52:33.401Z,121.33
2023-01-31T17:55:02.417Z,119.53
2023-01-31T17:57:32.937Z,95.00
2023-01-31T18:00:02.291Z,89.90
2023-01-31T18:02:36.065Z,97.40
2023-01-31T18:05:15.323Z,92.40
2023-01-31T18:07:44.559Z,92.00
2023-01-31T18:10:13.826Z,91.57
2023-01-31T18:12:47.495Z,103.57
2023-01-31T18:15:24.121Z,100.50
2023-01-31T18:17:53.274Z,95.13
2023-01-31T18:20:25.616Z,99.80
2023-01-31T18:23:05.342Z,100.73
2023-01-31T18:25:36.557Z,94.83
2023-01-31T18:28:07.140Z,86.10
2023-01-31T18:30:36.188Z,89.57
2023-01-31T18:33:05.376Z,85.87
2023-01-31T18:35:36.146Z,87.57
2023-01-31T18:38:07.070Z,97.27
2023-01-31T18:40:39.745Z,96.13
2023-01-31T18:43:10.379Z,99.83
2023-01-31T18:45:39.774Z,95.97
2023-01-31T18:48:08.826Z,97.03
2023-01-31T18:50:37.908Z,94.83
2023-01-31T18:53:07.749Z,93.37
2023-01-31T18:55:36.782Z,89.83
2023-01-31T18:58:07.166Z,90.97
2023-01-31T19:00:37.720Z,95.30
2023-01-31T19:03:07.101Z,93.87
2023-01-31T19:05:40.965Z,98.80
2023-01-31T19:08:13.991Z,94.77
2023-01-31T19:10:43.037Z,94.73
2023-01-31T19:13:12.083Z,93.63
2023-01-31T19:15:49.196Z,103.07
2023-01-31T19:18:18.328Z,93.17
2023-01-31T19:20:47.332Z,102.77
2023-01-31T19:23:16.379Z,104.13
2023-01-31T19:25:45.439Z,107.20
2023-01-31T19:28:14.580Z,102.00
2023-01-31T19:30:44.987Z,99.13
2023-01-31T19:33:14.096Z,94.77
2023-01-31T19:35:43.114Z,117.70
2023-01-31T19:38:12.626Z,101.03
2023-01-31T19:40:41.927Z,150.97
2023-01-31T19:43:11.340Z,124.00
2023-01-31T19:45:40.419Z,133.30
2023-01-31T19:48:12.892Z,127.50
2023-01-31T19:50:42.034Z,131.33
2023-01-31T19:53:10.975Z,113.60
2023-01-31T19:55:39.970Z,109.30
2023-01-31T19:58:09.295Z,100.43
2023-01-31T20:00:41.801Z,97.03
2023-01-31T20:03:14.678Z,98.83
2023-01-31T20:05:43.792Z,126.23
2023-01-31T20:08:12.814Z,115.60
2023-01-31T20:10:41.932Z,114.63
2023-01-31T20:13:10.911Z,118.80
2023-01-31T20:15:40.012Z,114.60
2023-01-31T20:18:09.036Z,107.73
2023-01-31T20:20:39.579Z,102.00
2023-01-31T20:23:09.627Z,105.63
2023-01-31T20:25:39.126Z,102.90
2023-01-31T20:28:15.474Z,112.13
2023-01-31T20:30:45.599Z,104.37
2023-01-31T20:33:15.758Z,101.40
2023-01-31T20:35:46.853Z,100.87
2023-01-31T20:38:18.340Z,100.33
2023-01-31T20:40:54.697Z,98.77
2023-01-31T20:43:26.440Z,100.20
2023-01-31T20:46:02.478Z,100.20
2023-01-31T20:48:32.253Z,87.53
2023-01-31T20:51:03.217Z,92.67
2023-01-31T20:53:35.081Z,96.50
2023-01-31T20:56:06.481Z,93.63
2023-01-31T20:58:37.588Z,131.33
2023-01-31T21:01:07.904Z,104.40
2023-01-31T21:03:37.534Z,109.07
2023-01-31T21:06:08.985Z,104.70
2023-01-31T21:08:40.223Z,107.33
2023-01-31T21:11:13.639Z,110.40
2023-01-31T21:13:44.087Z,104.33
2023-01-31T21:16:17.372Z,102.80
2023-01-31T21:18:46.836Z,102.23
2023-01-31T21:21:23.971Z,101.20
2023-01-31T21:23:54.206Z,102.57
2023-01-31T21:26:26.743Z,100.23
2023-01-31T21:28:56.501Z,96.10
2023-01-31T21:31:25.662Z,96.07
2023-01-31T21:33:57.751Z,101.30
2023-01-31T21:36:31.506Z,97.67
2023-01-31T21:39:01.959Z,94.47
2023-01-31T21:41:48.741Z,97.47
2023-01-31T21:44:17.992Z,87.80
2023-01-31T21:46:50.100Z,86.23
2023-01-31T21:49:19.088Z,89.60
2023-01-31T21:51:49.566Z,83.57
2023-01-31T21:54:18.867Z,83.43
2023-01-31T21:56:47.861Z,89.07
2023-01-31T21:59:16.941Z,84.07
2023-01-31T22:01:46.058Z,93.17
2023-01-31T22:04:20.724Z,85.87
2023-01-31T22:06:52.577Z,87.83
2023-01-31T22:09:21.729Z,80.83
2023-01-31T22:11:53.163Z,84.43
2023-01-31T22:14:24.680Z,91.90
2023-01-31T22:16:54.094Z,94.80
2023-01-31T22:19:23.286Z,100.33
2023-01-31T22:21:53.723Z,98.40
2023-01-31T22:24:22.851Z,95.83
2023-01-31T22:26:54.332Z,96.10
2023-01-31T22:29:23.551Z,97.17
2023-01-31T22:31:55.016Z,152.80
2023-01-31T22:34:24.253Z,127.20
2023-01-31T22:36:56.780Z,111.37
2023-01-31T22:39:25.867Z,98.03
2023-01-31T22:42:02.022Z,93.23
2023-01-31T22:44:31.420Z,91.07
2023-01-31T22:47:00.440Z,91.03
2023-01-31T22:49:29.472Z,90.57
2023-01-31T22:52:00.092Z,90.10
2023-01-31T22:54:29.098Z,90.30
2023-01-31T22:56:58.106Z,111.40
2023-01-31T22:59:29.556Z,100.07
2023-01-31T23:02:00.551Z,113.73
2023-01-31T23:04:29.689Z,103.47
2023-01-31T23:07:00.303Z,96.20
2023-01-31T23:09:29.410Z,95.80
2023-01-31T23:11:58.517Z,89.63
2023-01-31T23:14:27.538Z,99.27
2023-01-31T23:17:13.818Z,94.73
2023-01-31T23:19:43.031Z,92.87
2023-01-31T23:22:15.664Z,100.23
2023-01-31T23:24:44.699Z,105.33
2023-01-31T23:27:15.830Z,99.00
2023-01-31T23:29:44.911Z,92.87
2023-01-31T23:32:13.933Z,91.73
2023-01-31T23:34:42.966Z,94.33
2023-01-31T23:37:13.781Z,99.47
2023-01-31T23:39:45.446Z,99.67
2023-01-31T23:42:18.559Z,97.87
2023-01-31T23:44:47.610Z,97.77
2023-01-31T23:47:18.890Z,93.40
2023-01-31T23:49:47.955Z,97.00
2023-01-31T23:52:18.532Z,96.80
2023-01-31T23:54:50.358Z,92.37
2023-01-31T23:57:19.530Z,93.10
2023-01-31T23:59:50.568Z,95.23
